sensor_id;sensor_type;location;lat;lon;timestamp;temperature;humidity
27848;DHT22;15212;48.830;8.730;2023-02-28T00:01:32;-2.40;99.90
27848;DHT22;15212;48.830;8.730;2023-02-28T00:04:00;-2.40;99.90
27848;DHT22;15212;48.830;8.730;2023-02-28T00:06:29;-2.40;99.90
27848;DHT22;15212;48.830;8.730;2023-02-28T00:08:57;-2.50;99.90
27848;DHT22;15212;48.830;8.730;2023-02-28T00:11:26;-2.50;99.90
27848;DHT22;15212;48.830;8.730;2023-02-28T00:13:54;-2.50;99.90
27848;DHT22;15212;48.830;8.730;2023-02-28T00:16:22;-2.50;99.90
27848;DHT22;15212;48.830;8.730;2023-02-28T00:18:51;-2.50;99.90
27848;DHT22;15212;48.830;8.730;2023-02-28T00:21:20;-2.60;99.90
27848;DHT22;15212;48.830;8.730;2023-02-28T00:23:49;-2.50;99.90
27848;DHT22;15212;48.830;8.730;2023-02-28T00:26:17;-2.60;99.90
27848;DHT22;15212;48.830;8.730;2023-02-28T00:28:46;-2.60;99.90
27848;DHT22;15212;48.830;8.730;2023-02-28T00:31:15;-2.60;99.90
27848;DHT22;15212;48.830;8.730;2023-02-28T00:33:43;-2.60;99.90
27848;DHT22;15212;48.830;8.730;2023-02-28T00:36:11;-2.60;99.90
27848;DHT22;15212;48.830;8.730;2023-02-28T00:38:40;-2.60;99.90
27848;DHT22;15212;48.830;8.730;2023-02-28T00:41:09;-2.70;99.90
27848;DHT22;15212;48.830;8.730;2023-02-28T00:43:39;-2.70;99.90
27848;DHT22;15212;48.830;8.730;2023-02-28T00:46:07;-2.70;99.90
27848;DHT22;15212;48.830;8.730;2023-02-28T00:48:36;-2.70;99.90
27848;DHT22;15212;48.830;8.730;2023-02-28T00:51:05;-2.70;99.90
27848;DHT22;15212;48.830;8.730;2023-02-28T00:53:34;-2.70;99.90
27848;DHT22;15212;48.830;8.730;2023-02-28T00:56:03;-2.70;99.90
27848;DHT22;15212;48.830;8.730;2023-02-28T00:58:31;-2.70;99.90
27848;DHT22;15212;48.830;8.730;2023-02-28T01:01:00;-2.70;99.90
27848;DHT22;15212;48.830;8.730;2023-02-28T01:03:28;-2.80;99.90
27848;DHT22;15212;48.830;8.730;2023-02-28T01:05:57;-2.80;99.90
27848;DHT22;15212;48.830;8.730;2023-02-28T01:08:25;-2.80;99.90
27848;DHT22;15212;48.830;8.730;2023-02-28T01:10:54;-2.80;99.90
27848;DHT22;15212;48.830;8.730;2023-02-28T01:13:23;-2.80;99.90
27848;DHT22;15212;48.830;8.730;2023-02-28T01:15:54;-2.80;99.90
27848;DHT22;15212;48.830;8.730;2023-02-28T01:18:23;-2.80;99.90
27848;DHT22;15212;48.830;8.730;2023-02-28T01:20:51;-2.90;99.90
27848;DHT22;15212;48.830;8.730;2023-02-28T01:23:21;-2.90;99.90
27848;DHT22;15212;48.830;8.730;2023-02-28T01:25:53;-2.90;99.90
27848;DHT22;15212;48.830;8.730;2023-02-28T01:28:21;-2.90;99.90
27848;DHT22;15212;48.830;8.730;2023-02-28T01:30:50;-2.90;99.90
27848;DHT22;15212;48.830;8.730;2023-02-28T01:33:19;-2.90;99.90
27848;DHT22;15212;48.830;8.730;2023-02-28T01:35:47;-2.90;99.90
27848;DHT22;15212;48.830;8.730;2023-02-28T01:38:15;-2.90;99.90
27848;DHT22;15212;48.830;8.730;2023-02-28T01:40:44;-2.90;99.90
27848;DHT22;15212;48.830;8.730;2023-02-28T01:43:24;-3.00;99.90
27848;DHT22;15212;48.830;8.730;2023-02-28T01:45:56;-3.00;99.90
27848;DHT22;15212;48.830;8.730;2023-02-28T01:48:28;-3.00;99.90
27848;DHT22;15212;48.830;8.730;2023-02-28T01:51:03;-3.00;99.90
27848;DHT22;15212;48.830;8.730;2023-02-28T01:53:39;-3.00;99.90
27848;DHT22;15212;48.830;8.730;2023-02-28T01:56:11;-3.00;99.90
27848;DHT22;15212;48.830;8.730;2023-02-28T01:58:43;-3.00;99.90
27848;DHT22;15212;48.830;8.730;2023-02-28T02:01:11;-3.10;99.90
27848;DHT22;15212;48.830;8.730;2023-02-28T02:03:41;-3.10;99.90
27848;DHT22;15212;48.830;8.730;2023-02-28T02:06:10;-3.10;99.90
27848;DHT22;15212;48.830;8.730;2023-02-28T02:08:38;-3.10;99.90
27848;DHT22;15212;48.830;8.730;2023-02-28T02:11:08;-3.10;99.90
27848;DHT22;15212;48.830;8.730;2023-02-28T02:14:09;-3.10;99.90
27848;DHT22;15212;48.830;8.730;2023-02-28T02:22:22;-3.20;99.90
27848;DHT22;15212;48.830;8.730;2023-02-28T02:31:35;-3.20;99.90
27848;DHT22;15212;48.830;8.730;2023-02-28T02:37:22;-3.30;99.90
27848;DHT22;15212;48.830;8.730;2023-02-28T02:39:53;-3.30;99.90
27848;DHT22;15212;48.830;8.730;2023-02-28T02:42:54;-3.30;99.90
27848;DHT22;15212;48.830;8.730;2023-02-28T02:45:52;-3.30;99.90
27848;DHT22;15212;48.830;8.730;2023-02-28T02:48:24;-3.30;99.90
27848;DHT22;15212;48.830;8.730;2023-02-28T02:50:59;-3.30;99.90
27848;DHT22;15212;48.830;8.730;2023-02-28T02:53:32;-3.30;99.90
27848;DHT22;15212;48.830;8.730;2023-02-28T02:56:02;-3.30;99.90
27848;DHT22;15212;48.830;8.730;2023-02-28T02:58:34;-3.30;99.90
27848;DHT22;15212;48.830;8.730;2023-02-28T03:01:07;-3.30;99.90
27848;DHT22;15212;48.830;8.730;2023-02-28T03:03:38;-3.30;99.90
27848;DHT22;15212;48.830;8.730;2023-02-28T03:06:06;-3.30;99.90
27848;DHT22;15212;48.830;8.730;2023-02-28T03:08:37;-3.30;99.90
27848;DHT22;15212;48.830;8.730;2023-02-28T03:11:12;-3.30;99.90
27848;DHT22;15212;48.830;8.730;2023-02-28T03:17:09;-3.40;99.90
27848;DHT22;15212;48.830;8.730;2023-02-28T03:20:05;-3.30;99.90
27848;DHT22;15212;48.830;8.730;2023-02-28T03:22:56;-3.40;99.90
27848;DHT22;15212;48.830;8.730;2023-02-28T03:28:31;-3.30;99.90
27848;DHT22;15212;48.830;8.730;2023-02-28T03:31:21;-3.30;99.90
27848;DHT22;15212;48.830;8.730;2023-02-28T03:33:59;-3.30;99.90
27848;DHT22;15212;48.830;8.730;2023-02-28T03:36:32;-3.30;99.90
27848;DHT22;15212;48.830;8.730;2023-02-28T03:39:05;-3.30;99.90
27848;DHT22;15212;48.830;8.730;2023-02-28T03:41:49;-3.30;99.90
27848;DHT22;15212;48.830;8.730;2023-02-28T03:44:24;-3.30;99.90
27848;DHT22;15212;48.830;8.730;2023-02-28T03:47:14;-3.30;99.90
27848;DHT22;15212;48.830;8.730;2023-02-28T03:49:59;-3.30;99.90
27848;DHT22;15212;48.830;8.730;2023-02-28T03:52:42;-3.40;99.90
27848;DHT22;15212;48.830;8.730;2023-02-28T03:55:10;-3.30;99.90
27848;DHT22;15212;48.830;8.730;2023-02-28T04:00:16;-3.30;99.90
27848;DHT22;15212;48.830;8.730;2023-02-28T04:02:42;-3.30;99.90
27848;DHT22;15212;48.830;8.730;2023-02-28T04:05:10;-3.30;99.90
27848;DHT22;15212;48.830;8.730;2023-02-28T04:07:38;-3.30;99.90
27848;DHT22;15212;48.830;8.730;2023-02-28T04:10:07;-3.30;99.90
27848;DHT22;15212;48.830;8.730;2023-02-28T04:12:37;-3.20;99.90
27848;DHT22;15212;48.830;8.730;2023-02-28T04:15:06;-3.20;99.90
27848;DHT22;15212;48.830;8.730;2023-02-28T04:17:35;-3.20;99.90
27848;DHT22;15212;48.830;8.730;2023-02-28T04:20:05;-3.30;99.90
27848;DHT22;15212;48.830;8.730;2023-02-28T04:22:36;-3.30;99.90
27848;DHT22;15212;48.830;8.730;2023-02-28T04:25:05;-3.30;99.90
27848;DHT22;15212;48.830;8.730;2023-02-28T04:27:34;-3.30;99.90
27848;DHT22;15212;48.830;8.730;2023-02-28T04:30:05;-3.30;99.90
27848;DHT22;15212;48.830;8.730;2023-02-28T04:32:34;-3.30;99.90
27848;DHT22;15212;48.830;8.730;2023-02-28T04:35:02;-3.30;99.90
27848;DHT22;15212;48.830;8.730;2023-02-28T04:37:31;-3.30;99.90
27848;DHT22;15212;48.830;8.730;2023-02-28T04:40:01;-3.30;99.90
27848;DHT22;15212;48.830;8.730;2023-02-28T04:42:30;-3.30;99.90
27848;DHT22;15212;48.830;8.730;2023-02-28T04:45:04;-3.30;99.90
27848;DHT22;15212;48.830;8.730;2023-02-28T04:47:32;-3.30;99.90
27848;DHT22;15212;48.830;8.730;2023-02-28T04:50:01;-3.30;99.90
27848;DHT22;15212;48.830;8.730;2023-02-28T04:52:30;-3.30;99.90
27848;DHT22;15212;48.830;8.730;2023-02-28T04:54:58;-3.30;99.90
27848;DHT22;15212;48.830;8.730;2023-02-28T04:57:27;-3.30;99.90
27848;DHT22;15212;48.830;8.730;2023-02-28T04:59:56;-3.30;99.90
27848;DHT22;15212;48.830;8.730;2023-02-28T05:02:24;-3.30;99.90
27848;DHT22;15212;48.830;8.730;2023-02-28T05:04:53;-3.30;99.90
27848;DHT22;15212;48.830;8.730;2023-02-28T05:07:21;-3.30;99.90
27848;DHT22;15212;48.830;8.730;2023-02-28T05:09:49;-3.20;99.90
27848;DHT22;15212;48.830;8.730;2023-02-28T05:12:18;-3.20;99.90
27848;DHT22;15212;48.830;8.730;2023-02-28T05:14:46;-3.20;99.90
27848;DHT22;15212;48.830;8.730;2023-02-28T05:17:15;-3.20;99.90
27848;DHT22;15212;48.830;8.730;2023-02-28T05:19:43;-3.10;99.90
27848;DHT22;15212;48.830;8.730;2023-02-28T05:22:15;-3.20;99.90
27848;DHT22;15212;48.830;8.730;2023-02-28T05:24:44;-3.10;99.90
27848;DHT22;15212;48.830;8.730;2023-02-28T05:27:12;-3.10;99.90
27848;DHT22;15212;48.830;8.730;2023-02-28T05:29:41;-3.10;99.90
27848;DHT22;15212;48.830;8.730;2023-02-28T05:32:11;-3.10;99.90
27848;DHT22;15212;48.830;8.730;2023-02-28T05:34:40;-3.10;99.90
27848;DHT22;15212;48.830;8.730;2023-02-28T05:37:11;-3.10;99.90
27848;DHT22;15212;48.830;8.730;2023-02-28T05:39:40;-3.10;99.90
27848;DHT22;15212;48.830;8.730;2023-02-28T05:42:09;-3.10;99.90
27848;DHT22;15212;48.830;8.730;2023-02-28T05:44:37;-3.10;99.90
27848;DHT22;15212;48.830;8.730;2023-02-28T05:47:05;-3.10;99.90
27848;DHT22;15212;48.830;8.730;2023-02-28T05:49:34;-3.00;99.90
27848;DHT22;15212;48.830;8.730;2023-02-28T05:52:02;-3.00;99.90
27848;DHT22;15212;48.830;8.730;2023-02-28T05:54:31;-3.00;99.90
27848;DHT22;15212;48.830;8.730;2023-02-28T05:57:00;-3.00;99.90
27848;DHT22;15212;48.830;8.730;2023-02-28T05:59:28;-2.90;99.90
27848;DHT22;15212;48.830;8.730;2023-02-28T06:01:56;-3.00;99.90
27848;DHT22;15212;48.830;8.730;2023-02-28T06:04:25;-2.90;99.90
27848;DHT22;15212;48.830;8.730;2023-02-28T06:06:53;-2.90;99.90
27848;DHT22;15212;48.830;8.730;2023-02-28T06:09:23;-2.90;99.90
27848;DHT22;15212;48.830;8.730;2023-02-28T06:11:52;-2.90;99.90
27848;DHT22;15212;48.830;8.730;2023-02-28T06:14:20;-2.90;99.90
27848;DHT22;15212;48.830;8.730;2023-02-28T06:16:49;-2.80;99.90
27848;DHT22;15212;48.830;8.730;2023-02-28T06:19:17;-2.80;99.90
27848;DHT22;15212;48.830;8.730;2023-02-28T06:21:48;-2.80;99.90
27848;DHT22;15212;48.830;8.730;2023-02-28T06:24:19;-2.80;99.90
27848;DHT22;15212;48.830;8.730;2023-02-28T06:26:48;-2.80;99.90
27848;DHT22;15212;48.830;8.730;2023-02-28T06:29:17;-2.80;99.90
27848;DHT22;15212;48.830;8.730;2023-02-28T06:31:46;-2.80;99.90
27848;DHT22;15212;48.830;8.730;2023-02-28T06:34:15;-2.80;99.90
27848;DHT22;15212;48.830;8.730;2023-02-28T06:36:44;-2.70;99.90
27848;DHT22;15212;48.830;8.730;2023-02-28T06:39:12;-2.70;99.90
27848;DHT22;15212;48.830;8.730;2023-02-28T06:41:40;-2.70;99.90
27848;DHT22;15212;48.830;8.730;2023-02-28T06:44:15;-2.70;99.90
27848;DHT22;15212;48.830;8.730;2023-02-28T06:46:45;-2.70;99.90
27848;DHT22;15212;48.830;8.730;2023-02-28T06:49:14;-2.70;99.90
27848;DHT22;15212;48.830;8.730;2023-02-28T06:51:44;-2.70;99.90
27848;DHT22;15212;48.830;8.730;2023-02-28T06:54:13;-2.70;99.90
27848;DHT22;15212;48.830;8.730;2023-02-28T06:56:42;-2.70;99.90
27848;DHT22;15212;48.830;8.730;2023-02-28T06:59:10;-2.70;99.90
27848;DHT22;15212;48.830;8.730;2023-02-28T07:01:39;-2.70;99.90
27848;DHT22;15212;48.830;8.730;2023-02-28T07:04:07;-2.60;99.90
27848;DHT22;15212;48.830;8.730;2023-02-28T07:06:35;-2.60;99.90
27848;DHT22;15212;48.830;8.730;2023-02-28T07:09:04;-2.50;99.90
27848;DHT22;15212;48.830;8.730;2023-02-28T07:11:33;-2.50;99.90
27848;DHT22;15212;48.830;8.730;2023-02-28T07:14:01;-2.50;99.90
27848;DHT22;15212;48.830;8.730;2023-02-28T07:16:29;-2.50;99.90
27848;DHT22;15212;48.830;8.730;2023-02-28T07:18:58;-2.50;99.90
27848;DHT22;15212;48.830;8.730;2023-02-28T07:21:26;-2.50;99.90
27848;DHT22;15212;48.830;8.730;2023-02-28T07:23:56;-2.50;99.90
27848;DHT22;15212;48.830;8.730;2023-02-28T07:26:24;-2.50;99.90
27848;DHT22;15212;48.830;8.730;2023-02-28T07:28:53;-2.50;99.90
27848;DHT22;15212;48.830;8.730;2023-02-28T07:31:21;-2.50;99.90
27848;DHT22;15212;48.830;8.730;2023-02-28T07:33:50;-2.40;99.90
27848;DHT22;15212;48.830;8.730;2023-02-28T07:36:20;-2.40;99.90
27848;DHT22;15212;48.830;8.730;2023-02-28T07:38:48;-2.40;99.90
27848;DHT22;15212;48.830;8.730;2023-02-28T07:41:19;-2.40;99.90
27848;DHT22;15212;48.830;8.730;2023-02-28T07:43:48;-2.40;99.90
27848;DHT22;15212;48.830;8.730;2023-02-28T07:46:17;-2.40;99.90
27848;DHT22;15212;48.830;8.730;2023-02-28T07:48:47;-2.40;99.90
27848;DHT22;15212;48.830;8.730;2023-02-28T07:51:15;-2.40;99.90
27848;DHT22;15212;48.830;8.730;2023-02-28T07:53:44;-2.40;99.90
27848;DHT22;15212;48.830;8.730;2023-02-28T07:56:12;-2.30;99.90
27848;DHT22;15212;48.830;8.730;2023-02-28T07:58:40;-2.30;99.90
27848;DHT22;15212;48.830;8.730;2023-02-28T08:01:10;-2.30;99.90
27848;DHT22;15212;48.830;8.730;2023-02-28T08:03:40;-2.20;99.90
27848;DHT22;15212;48.830;8.730;2023-02-28T08:06:15;-2.20;99.90
27848;DHT22;15212;48.830;8.730;2023-02-28T08:08:44;-2.10;99.90
27848;DHT22;15212;48.830;8.730;2023-02-28T08:11:12;-2.10;99.90
27848;DHT22;15212;48.830;8.730;2023-02-28T08:13:43;-2.10;99.90
27848;DHT22;15212;48.830;8.730;2023-02-28T08:16:13;-2.10;99.90
27848;DHT22;15212;48.830;8.730;2023-02-28T08:18:44;-2.10;99.90
27848;DHT22;15212;48.830;8.730;2023-02-28T08:21:12;-2.00;99.90
27848;DHT22;15212;48.830;8.730;2023-02-28T08:23:41;-2.00;99.90
27848;DHT22;15212;48.830;8.730;2023-02-28T08:26:09;-2.00;99.90
27848;DHT22;15212;48.830;8.730;2023-02-28T08:28:38;-1.90;99.90
27848;DHT22;15212;48.830;8.730;2023-02-28T08:31:10;-1.90;99.90
27848;DHT22;15212;48.830;8.730;2023-02-28T08:33:40;-1.90;99.90
27848;DHT22;15212;48.830;8.730;2023-02-28T08:36:11;-1.90;99.90
27848;DHT22;15212;48.830;8.730;2023-02-28T08:38:40;-1.90;99.90
27848;DHT22;15212;48.830;8.730;2023-02-28T08:41:10;-1.90;99.90
27848;DHT22;15212;48.830;8.730;2023-02-28T08:43:40;-1.90;99.90
27848;DHT22;15212;48.830;8.730;2023-02-28T08:46:11;-1.90;99.90
27848;DHT22;15212;48.830;8.730;2023-02-28T08:48:40;-1.90;99.90
27848;DHT22;15212;48.830;8.730;2023-02-28T08:51:12;-1.80;99.90
27848;DHT22;15212;48.830;8.730;2023-02-28T08:53:43;-1.80;99.90
27848;DHT22;15212;48.830;8.730;2023-02-28T08:56:14;-1.80;99.90
27848;DHT22;15212;48.830;8.730;2023-02-28T08:58:44;-1.80;99.90
27848;DHT22;15212;48.830;8.730;2023-02-28T09:01:18;-1.80;99.90
27848;DHT22;15212;48.830;8.730;2023-02-28T09:03:49;-1.80;99.90
27848;DHT22;15212;48.830;8.730;2023-02-28T09:06:19;-1.80;99.90
27848;DHT22;15212;48.830;8.730;2023-02-28T09:08:50;-1.70;99.90
27848;DHT22;15212;48.830;8.730;2023-02-28T09:11:18;-1.70;99.90
27848;DHT22;15212;48.830;8.730;2023-02-28T09:13:47;-1.70;99.90
27848;DHT22;15212;48.830;8.730;2023-02-28T09:16:16;-1.70;99.90
27848;DHT22;15212;48.830;8.730;2023-02-28T09:18:45;-1.70;99.90
27848;DHT22;15212;48.830;8.730;2023-02-28T09:21:16;-1.60;99.90
27848;DHT22;15212;48.830;8.730;2023-02-28T09:23:47;-1.60;99.90
27848;DHT22;15212;48.830;8.730;2023-02-28T09:26:24;-1.60;99.90
27848;DHT22;15212;48.830;8.730;2023-02-28T09:28:54;-1.50;99.90
27848;DHT22;15212;48.830;8.730;2023-02-28T09:31:26;-1.50;99.90
27848;DHT22;15212;48.830;8.730;2023-02-28T09:33:57;-1.40;99.90
27848;DHT22;15212;48.830;8.730;2023-02-28T09:36:27;-1.40;99.90
27848;DHT22;15212;48.830;8.730;2023-02-28T09:38:56;-1.40;99.90
27848;DHT22;15212;48.830;8.730;2023-02-28T09:41:30;-1.40;99.90
27848;DHT22;15212;48.830;8.730;2023-02-28T09:44:03;-1.40;99.90
27848;DHT22;15212;48.830;8.730;2023-02-28T09:46:45;-1.40;99.90
27848;DHT22;15212;48.830;8.730;2023-02-28T09:49:22;-1.30;99.90
27848;DHT22;15212;48.830;8.730;2023-02-28T09:52:05;-1.20;99.90
27848;DHT22;15212;48.830;8.730;2023-02-28T09:54:38;-1.20;99.90
27848;DHT22;15212;48.830;8.730;2023-02-28T09:57:33;-1.10;99.90
27848;DHT22;15212;48.830;8.730;2023-02-28T10:08:28;-0.90;99.90
27848;DHT22;15212;48.830;8.730;2023-02-28T10:11:00;-0.90;99.90
27848;DHT22;15212;48.830;8.730;2023-02-28T10:13:55;-0.80;99.90
27848;DHT22;15212;48.830;8.730;2023-02-28T10:19:23;-0.70;99.90
27848;DHT22;15212;48.830;8.730;2023-02-28T10:22:17;-0.70;99.90
27848;DHT22;15212;48.830;8.730;2023-02-28T10:24:55;-0.80;99.90
27848;DHT22;15212;48.830;8.730;2023-02-28T10:27:25;-0.70;99.90
27848;DHT22;15212;48.830;8.730;2023-02-28T10:29:57;-0.70;99.90
27848;DHT22;15212;48.830;8.730;2023-02-28T10:32:37;-0.70;99.90
27848;DHT22;15212;48.830;8.730;2023-02-28T10:37:49;-0.70;99.90
27848;DHT22;15212;48.830;8.730;2023-02-28T10:43:00;-0.70;99.90
27848;DHT22;15212;48.830;8.730;2023-02-28T10:45:34;-0.70;99.90
27848;DHT22;15212;48.830;8.730;2023-02-28T10:50:51;-0.70;99.90
27848;DHT22;15212;48.830;8.730;2023-02-28T10:53:33;-0.70;99.90
27848;DHT22;15212;48.830;8.730;2023-02-28T10:56:27;-0.60;99.90
27848;DHT22;15212;48.830;8.730;2023-02-28T11:01:47;-0.40;99.90
27848;DHT22;15212;48.830;8.730;2023-02-28T11:07:01;-0.20;99.90
27848;DHT22;15212;48.830;8.730;2023-02-28T11:09:36;0.00;99.90
27848;DHT22;15212;48.830;8.730;2023-02-28T11:12:17;0.10;99.90
27848;DHT22;15212;48.830;8.730;2023-02-28T11:14:59;0.10;99.90
27848;DHT22;15212;48.830;8.730;2023-02-28T11:17:31;0.10;99.90
27848;DHT22;15212;48.830;8.730;2023-02-28T11:20:07;0.20;99.90
27848;DHT22;15212;48.830;8.730;2023-02-28T11:22:38;0.20;99.90
27848;DHT22;15212;48.830;8.730;2023-02-28T11:25:21;0.30;99.90
27848;DHT22;15212;48.830;8.730;2023-02-28T11:27:58;0.40;99.90
27848;DHT22;15212;48.830;8.730;2023-02-28T11:30:36;0.60;99.90
27848;DHT22;15212;48.830;8.730;2023-02-28T11:33:26;0.70;99.90
27848;DHT22;15212;48.830;8.730;2023-02-28T11:36:09;0.80;99.90
27848;DHT22;15212;48.830;8.730;2023-02-28T11:38:35;0.80;99.90
27848;DHT22;15212;48.830;8.730;2023-02-28T11:44:15;0.90;99.90
27848;DHT22;15212;48.830;8.730;2023-02-28T11:46:57;0.90;99.90
27848;DHT22;15212;48.830;8.730;2023-02-28T11:49:39;1.10;99.90
27848;DHT22;15212;48.830;8.730;2023-02-28T11:55:08;1.20;99.90
27848;DHT22;15212;48.830;8.730;2023-02-28T12:01:07;1.40;99.90
27848;DHT22;15212;48.830;8.730;2023-02-28T12:03:43;1.50;99.90
27848;DHT22;15212;48.830;8.730;2023-02-28T12:09:00;1.70;99.90
27848;DHT22;15212;48.830;8.730;2023-02-28T12:12:38;1.70;99.90
27848;DHT22;15212;48.830;8.730;2023-02-28T12:14:52;1.70;99.90
27848;DHT22;15212;48.830;8.730;2023-02-28T12:20:46;1.90;99.90
27848;DHT22;15212;48.830;8.730;2023-02-28T12:26:12;1.90;99.90
27848;DHT22;15212;48.830;8.730;2023-02-28T12:28:49;1.90;99.90
27848;DHT22;15212;48.830;8.730;2023-02-28T12:31:21;1.90;99.90
27848;DHT22;15212;48.830;8.730;2023-02-28T12:34:04;1.80;99.90
27848;DHT22;15212;48.830;8.730;2023-02-28T12:36:30;1.70;99.90
27848;DHT22;15212;48.830;8.730;2023-02-28T12:39:15;1.80;99.90
27848;DHT22;15212;48.830;8.730;2023-02-28T12:42:03;1.80;99.90
27848;DHT22;15212;48.830;8.730;2023-02-28T12:44:27;1.90;99.90
27848;DHT22;15212;48.830;8.730;2023-02-28T12:47:09;1.90;99.90
27848;DHT22;15212;48.830;8.730;2023-02-28T12:52:25;2.00;99.90
27848;DHT22;15212;48.830;8.730;2023-02-28T12:55:14;2.00;99.90
27848;DHT22;15212;48.830;8.730;2023-02-28T12:57:57;2.00;99.90
27848;DHT22;15212;48.830;8.730;2023-02-28T13:00:32;2.00;99.90
27848;DHT22;15212;48.830;8.730;2023-02-28T13:06:20;2.00;99.90
27848;DHT22;15212;48.830;8.730;2023-02-28T13:09:10;2.00;99.90
27848;DHT22;15212;48.830;8.730;2023-02-28T13:19:43;2.60;99.90
27848;DHT22;15212;48.830;8.730;2023-02-28T13:22:20;3.00;99.90
27848;DHT22;15212;48.830;8.730;2023-02-28T13:28:08;3.10;99.90
27848;DHT22;15212;48.830;8.730;2023-02-28T13:33:34;2.80;99.90
27848;DHT22;15212;48.830;8.730;2023-02-28T13:38:59;2.70;99.90
27848;DHT22;15212;48.830;8.730;2023-02-28T13:44:23;2.90;99.90
27848;DHT22;15212;48.830;8.730;2023-02-28T13:49:29;3.10;99.90
27848;DHT22;15212;48.830;8.730;2023-02-28T14:04:03;3.20;99.90
27848;DHT22;15212;48.830;8.730;2023-02-28T14:06:33;3.30;99.90
27848;DHT22;15212;48.830;8.730;2023-02-28T14:09:06;3.30;99.90
27848;DHT22;15212;48.830;8.730;2023-02-28T14:11:54;3.30;99.90
27848;DHT22;15212;48.830;8.730;2023-02-28T14:17:13;3.20;99.90
27848;DHT22;15212;48.830;8.730;2023-02-28T14:19:44;3.30;99.90
27848;DHT22;15212;48.830;8.730;2023-02-28T14:22:47;3.40;99.90
27848;DHT22;15212;48.830;8.730;2023-02-28T14:25:41;3.70;99.90
27848;DHT22;15212;48.830;8.730;2023-02-28T14:28:18;3.80;99.90
27848;DHT22;15212;48.830;8.730;2023-02-28T14:35:11;3.60;99.90
27848;DHT22;15212;48.830;8.730;2023-02-28T14:37:03;3.50;99.90
27848;DHT22;15212;48.830;8.730;2023-02-28T14:39:33;3.70;99.90
27848;DHT22;15212;48.830;8.730;2023-02-28T14:42:03;3.60;99.90
27848;DHT22;15212;48.830;8.730;2023-02-28T14:44:35;3.70;99.90
27848;DHT22;15212;48.830;8.730;2023-02-28T14:47:04;3.70;99.90
27848;DHT22;15212;48.830;8.730;2023-02-28T14:49:44;3.60;99.90
27848;DHT22;15212;48.830;8.730;2023-02-28T14:52:25;3.60;99.90
27848;DHT22;15212;48.830;8.730;2023-02-28T14:55:04;3.60;99.90
27848;DHT22;15212;48.830;8.730;2023-02-28T14:57:40;3.70;99.90
27848;DHT22;15212;48.830;8.730;2023-02-28T15:00:15;3.70;99.90
27848;DHT22;15212;48.830;8.730;2023-02-28T15:02:45;3.70;99.90
27848;DHT22;15212;48.830;8.730;2023-02-28T15:08:14;3.90;99.90
27848;DHT22;15212;48.830;8.730;2023-02-28T15:10:54;3.90;99.90
27848;DHT22;15212;48.830;8.730;2023-02-28T15:13:22;3.90;99.90
27848;DHT22;15212;48.830;8.730;2023-02-28T15:15:55;3.80;99.90
27848;DHT22;15212;48.830;8.730;2023-02-28T15:18:28;3.60;99.90
27848;DHT22;15212;48.830;8.730;2023-02-28T15:21:11;3.50;99.90
27848;DHT22;15212;48.830;8.730;2023-02-28T15:23:44;3.40;99.90
27848;DHT22;15212;48.830;8.730;2023-02-28T15:26:16;3.30;99.90
27848;DHT22;15212;48.830;8.730;2023-02-28T15:28:50;3.30;99.90
27848;DHT22;15212;48.830;8.730;2023-02-28T15:31:23;3.30;99.90
27848;DHT22;15212;48.830;8.730;2023-02-28T15:33:57;3.30;99.90
27848;DHT22;15212;48.830;8.730;2023-02-28T15:36:33;3.40;99.90
27848;DHT22;15212;48.830;8.730;2023-02-28T15:39:18;3.30;99.90
27848;DHT22;15212;48.830;8.730;2023-02-28T15:41:47;3.30;99.90
27848;DHT22;15212;48.830;8.730;2023-02-28T15:46:58;3.30;99.90
27848;DHT22;15212;48.830;8.730;2023-02-28T15:49:37;3.30;99.90
27848;DHT22;15212;48.830;8.730;2023-02-28T15:52:14;3.20;99.90
27848;DHT22;15212;48.830;8.730;2023-02-28T15:54:45;3.10;99.90
27848;DHT22;15212;48.830;8.730;2023-02-28T15:57:20;3.00;99.90
27848;DHT22;15212;48.830;8.730;2023-02-28T15:59:56;3.00;99.90
27848;DHT22;15212;48.830;8.730;2023-02-28T16:02:33;2.80;99.90
27848;DHT22;15212;48.830;8.730;2023-02-28T16:07:49;2.80;99.90
27848;DHT22;15212;48.830;8.730;2023-02-28T16:10:17;2.70;99.90
27848;DHT22;15212;48.830;8.730;2023-02-28T16:12:46;2.60;99.90
27848;DHT22;15212;48.830;8.730;2023-02-28T16:15:24;2.60;99.90
27848;DHT22;15212;48.830;8.730;2023-02-28T16:17:51;2.60;99.90
27848;DHT22;15212;48.830;8.730;2023-02-28T16:20:23;2.60;99.90
27848;DHT22;15212;48.830;8.730;2023-02-28T16:22:55;2.60;99.90
27848;DHT22;15212;48.830;8.730;2023-02-28T16:25:37;2.50;99.90
27848;DHT22;15212;48.830;8.730;2023-02-28T16:28:06;2.50;99.90
27848;DHT22;15212;48.830;8.730;2023-02-28T16:30:38;2.50;99.90
27848;DHT22;15212;48.830;8.730;2023-02-28T16:33:08;2.40;99.90
27848;DHT22;15212;48.830;8.730;2023-02-28T16:35:36;2.40;99.90
27848;DHT22;15212;48.830;8.730;2023-02-28T16:38:05;2.40;99.90
27848;DHT22;15212;48.830;8.730;2023-02-28T16:40:35;2.40;99.90
27848;DHT22;15212;48.830;8.730;2023-02-28T16:43:18;2.30;99.90
27848;DHT22;15212;48.830;8.730;2023-02-28T16:45:56;2.30;99.90
27848;DHT22;15212;48.830;8.730;2023-02-28T16:48:27;2.20;99.90
27848;DHT22;15212;48.830;8.730;2023-02-28T16:50:57;2.20;99.90
27848;DHT22;15212;48.830;8.730;2023-02-28T16:53:25;2.10;99.90
27848;DHT22;15212;48.830;8.730;2023-02-28T16:55:54;2.10;99.90
27848;DHT22;15212;48.830;8.730;2023-02-28T16:58:22;2.00;99.90
27848;DHT22;15212;48.830;8.730;2023-02-28T17:00:52;1.90;99.90
27848;DHT22;15212;48.830;8.730;2023-02-28T17:03:25;1.90;99.90
27848;DHT22;15212;48.830;8.730;2023-02-28T17:05:55;1.80;99.90
27848;DHT22;15212;48.830;8.730;2023-02-28T17:08:23;1.80;99.90
27848;DHT22;15212;48.830;8.730;2023-02-28T17:10:52;1.70;99.90
27848;DHT22;15212;48.830;8.730;2023-02-28T17:13:20;1.70;99.90
27848;DHT22;15212;48.830;8.730;2023-02-28T17:15:48;1.60;99.90
27848;DHT22;15212;48.830;8.730;2023-02-28T17:18:18;1.50;99.90
27848;DHT22;15212;48.830;8.730;2023-02-28T17:20:48;1.50;99.90
27848;DHT22;15212;48.830;8.730;2023-02-28T17:23:17;1.50;99.90
27848;DHT22;15212;48.830;8.730;2023-02-28T17:25:45;1.40;99.90
27848;DHT22;15212;48.830;8.730;2023-02-28T17:28:15;1.30;99.90
27848;DHT22;15212;48.830;8.730;2023-02-28T17:30:43;1.30;99.90
27848;DHT22;15212;48.830;8.730;2023-02-28T17:33:14;1.30;99.90
27848;DHT22;15212;48.830;8.730;2023-02-28T17:35:43;1.30;99.90
27848;DHT22;15212;48.830;8.730;2023-02-28T17:38:19;1.30;99.90
27848;DHT22;15212;48.830;8.730;2023-02-28T17:40:49;1.20;99.90
27848;DHT22;15212;48.830;8.730;2023-02-28T17:43:19;1.20;99.90
27848;DHT22;15212;48.830;8.730;2023-02-28T17:45:47;1.10;99.90
27848;DHT22;15212;48.830;8.730;2023-02-28T17:48:16;1.10;99.90
27848;DHT22;15212;48.830;8.730;2023-02-28T17:50:44;1.00;99.90
27848;DHT22;15212;48.830;8.730;2023-02-28T17:53:12;1.10;99.90
27848;DHT22;15212;48.830;8.730;2023-02-28T17:55:41;1.00;99.90
27848;DHT22;15212;48.830;8.730;2023-02-28T17:58:10;1.00;99.90
27848;DHT22;15212;48.830;8.730;2023-02-28T18:00:39;1.00;99.90
27848;DHT22;15212;48.830;8.730;2023-02-28T18:03:07;1.00;99.90
27848;DHT22;15212;48.830;8.730;2023-02-28T18:05:36;0.90;99.90
27848;DHT22;15212;48.830;8.730;2023-02-28T18:08:04;0.90;99.90
27848;DHT22;15212;48.830;8.730;2023-02-28T18:10:34;0.80;99.90
27848;DHT22;15212;48.830;8.730;2023-02-28T18:13:02;0.80;99.90